TimeMDT,TemperatureF,Dew PointF,Humidity,Sea Level PressureIn,VisibilityMPH,Wind Direction,Wind SpeedMPH,Gust SpeedMPH,PrecipitationIn,Events,Conditions,WindDirDegrees,DateUTC
12:56 AM,46.0,45.0,96,30.11,-9999.0,Calm,Calm,-,N/A,,Unknown,0,2013-09-15 06:56:00
1:56 AM,45.0,44.1,97,30.12,-9999.0,Calm,Calm,-,N/A,,Unknown,0,2013-09-15 07:56:00
2:56 AM,45.0,44.1,97,30.12,-9999.0,Calm,Calm,-,N/A,,Unknown,0,2013-09-15 08:56:00
3:56 AM,44.1,43.0,96,30.13,-9999.0,NW,3.5,-,N/A,,Unknown,310,2013-09-15 09:56:00
4:56 AM,45.0,44.1,97,30.14,-9999.0,Calm,Calm,-,N/A,,Unknown,0,2013-09-15 10:56:00
5:56 AM,45.0,45.0,100,30.15,-9999.0,Calm,Calm,-,N/A,,Unknown,0,2013-09-15 11:56:00
6:56 AM,45.0,44.1,97,30.15,-9999.0,Calm,Calm,-,N/A,,Unknown,0,2013-09-15 12:56:00
7:56 AM,48.9,46.0,90,30.15,-9999.0,Calm,Calm,-,N/A,,Unknown,0,2013-09-15 13:56:00
8:56 AM,52.0,46.9,83,30.14,-9999.0,Calm,Calm,-,N/A,,Unknown,0,2013-09-15 14:56:00
9:56 AM,54.0,46.9,77,30.16,-9999.0,Calm,Calm,-,N/A,,Unknown,0,2013-09-15 15:56:00
10:56 AM,55.9,48.9,77,30.14,-9999.0,Calm,Calm,-,N/A,,Unknown,0,2013-09-15 16:56:00
11:56 AM,55.9,48.0,75,30.14,-9999.0,Variable,3.5,-,N/A,,Unknown,0,2013-09-15 17:56:00
12:56 PM,55.9,48.0,75,30.15,-9999.0,Calm,Calm,-,N/A,,Unknown,0,2013-09-15 18:56:00
1:56 PM,55.9,46.9,72,30.14,-9999.0,Calm,Calm,-,N/A,,Unknown,0,2013-09-15 19:56:00
2:56 PM,59.0,46.9,64,30.12,-9999.0,Variable,4.6,-,N/A,,Unknown,0,2013-09-15 20:56:00
3:56 PM,60.1,46.9,62,30.10,-9999.0,Variable,3.5,-,N/A,,Unknown,0,2013-09-15 21:56:00
4:56 PM,55.0,51.1,86,30.11,-9999.0,Calm,Calm,-,0.02,,Unknown,0,2013-09-15 22:56:00
5:56 PM,54.0,51.1,90,30.12,-9999.0,Calm,Calm,-,0.02,,Unknown,0,2013-09-15 23:56:00
6:56 PM,54.0,48.9,83,30.12,-9999.0,Calm,Calm,-,N/A,,Unknown,0,2013-09-16 00:56:00
7:56 PM,51.1,48.9,92,30.11,-9999.0,Calm,Calm,-,N/A,,Unknown,0,2013-09-16 01:56:00
8:56 PM,48.0,46.9,96,30.11,-9999.0,Calm,Calm,-,N/A,,Unknown,0,2013-09-16 02:56:00
9:56 PM,46.0,45.0,96,30.12,-9999.0,Calm,Calm,-,N/A,,Unknown,0,2013-09-16 03:56:00
10:56 PM,45.0,44.1,97,30.10,-9999.0,Calm,Calm,-,N/A,,Unknown,0,2013-09-16 04:56:00
11:56 PM,44.1,43.0,96,30.10,-9999.0,Calm,Calm,-,N/A,,Unknown,0,2013-09-16 05:56:00